Westfield, NJ

1:13 PM EDT on August 20, 2014 (GMT -0400)
Essex County | Change Station
CLOSE
Current Station
Airport
Location: Caldwell,
Elevation: 174 ft
Nearby Weather Stations

Elev 174 ft 40.88 °N, 74.28 °W | Updated 20 minutes ago

Scattered Clouds
Scattered Clouds
80 °F
Feels Like 81 °F
N
6
Wind Variable Wind from WSW

Today
High -- | Low -- °F
--% Chance of Precip.
Yesterday
High -- | Low -- °F
Precip. -- in
6:12 AM 7:48 PM
Waning Crescent, 20% visible
Pressure 30.01 in
Visibility 10.0 miles
Clouds Scattered Clouds 4000 ft
Heat Index 81 °F
Dew Point 61 °F
Humidity 52%
Rainfall 0.00 in
Snow Depth Not available.
UV 8 out of 12
Pollen 9.70 out of 12
Air Quality Not available.
Flu Activity Not available.
METAR KCDW 201653Z 25005KT 10SM SCT040 27/16 A2999 RMK AO2 SLP161 T02670161

More Conditions Fewer Conditions

Pressure 30.01 in
Visibility 10.0 miles
Clouds Scattered Clouds 4000 ft
Heat Index 81 °F
Dew Point 61 °F
Humidity 52%
Rainfall 0.00 in
Snow Depth Not available.
UV 8 out of 12
Pollen 9.70 out of 12
Air Quality Not available.
Flu Activity Not available.
METAR KCDW 201653Z 25005KT 10SM SCT040 27/16 A2999 RMK AO2 SLP161 T02670161

More Conditions Fewer Conditions

10-Day Weather Forecast

Almanac

Astronomy

Aug. 20, 2014 Rise Set
Actual Time 6:12 AM EDT 7:48 PM EDT
Civil Twilight 5:43 AM EDT 8:16 PM EDT
Nautical Twilight 5:08 AM EDT 8:51 PM EDT
Astronomical Twilight 4:31 AM EDT 9:28 PM EDT
Moon 1:50 AM EDT 4:31 PM EDT
Length of Visible Light 14h 33m
Length of Day
13h 35m
Tomorrow will be 2m 27s shorter.
Waning Crescent, 20% of the Moon is Illuminated
Today
Waning Crescent
Aug 25
New
Sep 2
First Quarter
Sep 8
Full
Sep 15
Last Quarter

Today's Extremes

State Highs State Lows

Community

WunderPhotos

Upload Photos

1,745,694 photos uploaded!

WunderBlogs® & News

By Dr. Jeff Masters
Director of Meteorology, Weather Underground
By Kari Strenfel
Meteorologist, Weather Underground
By Christopher C. Burt
Weather Historian, Weather Underground
August 20, 2014
August 20, 2014
August 20, 2014

Nearby

Snow Depth

Station Depth Elevation
No new snow has been reported.

Earthquake Activity

City Distance Mag. Time & Date
Deep River Center, Connecticut 108 miles 2.7 3:09 AM EDT
2014-08-14
Minimum magnitude displayed is 2.5.

Coastal Water Temperatures

Place Temperature
Sandy Hook, NJ 73.9 °F
The Battery, NY 73.0 °F
Bergen Point West Reach, NJ 73.9 °F
Kings Point, NY 73.0 °F

Nearby Weather Stations